sensor_id;sensor_type;location;lat;lon;timestamp;P1;durP1;ratioP1;P2;durP2;ratioP2
21943;SDS011;11136;48.778;9.126;2024-03-23T00:53:23;4.63;;;2.38;;
21943;SDS011;11136;48.778;9.126;2024-03-23T00:55:49;6.95;;;2.13;;
21943;SDS011;11136;48.778;9.126;2024-03-23T00:58:14;3.22;;;2.50;;
21943;SDS011;11136;48.778;9.126;2024-03-23T01:00:40;3.83;;;2.28;;
21943;SDS011;11136;48.778;9.126;2024-03-23T01:03:05;4.50;;;2.40;;
21943;SDS011;11136;48.778;9.126;2024-03-23T01:05:30;3.65;;;1.95;;
21943;SDS011;11136;48.778;9.126;2024-03-23T01:07:56;4.90;;;1.98;;
21943;SDS011;11136;48.778;9.126;2024-03-23T01:10:21;5.15;;;2.25;;
21943;SDS011;11136;48.778;9.126;2024-03-23T01:12:46;3.10;;;2.05;;
21943;SDS011;11136;48.778;9.126;2024-03-23T01:15:12;2.95;;;2.05;;
21943;SDS011;11136;48.778;9.126;2024-03-23T01:17:37;5.65;;;2.22;;
21943;SDS011;11136;48.778;9.126;2024-03-23T01:20:02;2.70;;;2.00;;
21943;SDS011;11136;48.778;9.126;2024-03-23T01:22:29;5.93;;;2.13;;
21943;SDS011;11136;48.778;9.126;2024-03-23T01:24:54;3.25;;;2.42;;
21943;SDS011;11136;48.778;9.126;2024-03-23T01:27:19;5.28;;;2.25;;
21943;SDS011;11136;48.778;9.126;2024-03-23T01:29:45;5.03;;;2.35;;
21943;SDS011;11136;48.778;9.126;2024-03-23T01:32:10;5.32;;;2.67;;
21943;SDS011;11136;48.778;9.126;2024-03-23T01:34:35;5.78;;;2.13;;
21943;SDS011;11136;48.778;9.126;2024-03-23T01:37:01;2.58;;;2.08;;
21943;SDS011;11136;48.778;9.126;2024-03-23T01:39:26;3.83;;;2.22;;
21943;SDS011;11136;48.778;9.126;2024-03-23T01:41:51;7.50;;;2.42;;
21943;SDS011;11136;48.778;9.126;2024-03-23T01:44:16;5.35;;;2.20;;
21943;SDS011;11136;48.778;9.126;2024-03-23T01:46:42;5.82;;;2.35;;
21943;SDS011;11136;48.778;9.126;2024-03-23T01:49:08;5.90;;;2.22;;
21943;SDS011;11136;48.778;9.126;2024-03-23T01:51:34;3.97;;;2.65;;
21943;SDS011;11136;48.778;9.126;2024-03-23T01:54:04;4.55;;;2.08;;
21943;SDS011;11136;48.778;9.126;2024-03-23T01:56:34;3.55;;;2.30;;
21943;SDS011;11136;48.778;9.126;2024-03-23T01:59:09;3.92;;;1.95;;
21943;SDS011;11136;48.778;9.126;2024-03-23T02:01:34;4.22;;;2.30;;
21943;SDS011;11136;48.778;9.126;2024-03-23T02:04:03;4.50;;;2.42;;
21943;SDS011;11136;48.778;9.126;2024-03-23T02:06:29;2.92;;;2.05;;
21943;SDS011;11136;48.778;9.126;2024-03-23T02:08:54;4.45;;;2.50;;
21943;SDS011;11136;48.778;9.126;2024-03-23T02:11:20;3.00;;;2.03;;
21943;SDS011;11136;48.778;9.126;2024-03-23T02:13:46;4.03;;;2.47;;
21943;SDS011;11136;48.778;9.126;2024-03-23T02:16:11;2.17;;;1.92;;
21943;SDS011;11136;48.778;9.126;2024-03-23T02:18:38;7.03;;;2.72;;
21943;SDS011;11136;48.778;9.126;2024-03-23T02:21:03;3.75;;;2.40;;
21943;SDS011;11136;48.778;9.126;2024-03-23T02:23:29;2.97;;;1.90;;
21943;SDS011;11136;48.778;9.126;2024-03-23T02:25:54;3.63;;;2.40;;
21943;SDS011;11136;48.778;9.126;2024-03-23T02:28:20;5.43;;;2.10;;
21943;SDS011;11136;48.778;9.126;2024-03-23T02:30:47;4.07;;;2.47;;
21943;SDS011;11136;48.778;9.126;2024-03-23T02:33:12;4.43;;;2.25;;
21943;SDS011;11136;48.778;9.126;2024-03-23T02:35:38;5.40;;;2.70;;
21943;SDS011;11136;48.778;9.126;2024-03-23T02:38:03;4.28;;;1.90;;
21943;SDS011;11136;48.778;9.126;2024-03-23T02:40:29;3.85;;;2.35;;
21943;SDS011;11136;48.778;9.126;2024-03-23T02:42:54;2.97;;;2.05;;
21943;SDS011;11136;48.778;9.126;2024-03-23T02:45:20;2.63;;;2.05;;
21943;SDS011;11136;48.778;9.126;2024-03-23T02:47:45;2.97;;;2.17;;
21943;SDS011;11136;48.778;9.126;2024-03-23T02:50:10;3.45;;;2.50;;
21943;SDS011;11136;48.778;9.126;2024-03-23T02:52:36;10.48;;;2.85;;
21943;SDS011;11136;48.778;9.126;2024-03-23T02:55:02;4.13;;;2.50;;
21943;SDS011;11136;48.778;9.126;2024-03-23T02:57:27;4.80;;;2.13;;
21943;SDS011;11136;48.778;9.126;2024-03-23T02:59:53;6.45;;;2.10;;
21943;SDS011;11136;48.778;9.126;2024-03-23T03:02:19;3.33;;;1.85;;
21943;SDS011;11136;48.778;9.126;2024-03-23T03:04:45;1.80;;;1.58;;
21943;SDS011;11136;48.778;9.126;2024-03-23T03:07:10;7.60;;;2.30;;
21943;SDS011;11136;48.778;9.126;2024-03-23T03:09:35;4.80;;;2.33;;
21943;SDS011;11136;48.778;9.126;2024-03-23T03:12:01;2.47;;;2.05;;
21943;SDS011;11136;48.778;9.126;2024-03-23T03:14:27;2.28;;;2.00;;
21943;SDS011;11136;48.778;9.126;2024-03-23T03:16:53;5.70;;;2.72;;
21943;SDS011;11136;48.778;9.126;2024-03-23T03:19:18;5.57;;;2.28;;
21943;SDS011;11136;48.778;9.126;2024-03-23T03:21:44;5.55;;;2.33;;
21943;SDS011;11136;48.778;9.126;2024-03-23T03:24:09;2.28;;;1.88;;
21943;SDS011;11136;48.778;9.126;2024-03-23T03:26:34;2.20;;;1.80;;
21943;SDS011;11136;48.778;9.126;2024-03-23T03:29:00;7.57;;;2.15;;
21943;SDS011;11136;48.778;9.126;2024-03-23T03:31:25;4.30;;;2.20;;
21943;SDS011;11136;48.778;9.126;2024-03-23T03:33:51;3.03;;;1.85;;
21943;SDS011;11136;48.778;9.126;2024-03-23T03:36:16;6.28;;;2.05;;
21943;SDS011;11136;48.778;9.126;2024-03-23T03:38:42;5.20;;;2.25;;
21943;SDS011;11136;48.778;9.126;2024-03-23T03:41:07;2.28;;;2.08;;
21943;SDS011;11136;48.778;9.126;2024-03-23T03:43:32;5.97;;;2.10;;
21943;SDS011;11136;48.778;9.126;2024-03-23T03:45:59;3.70;;;2.08;;
21943;SDS011;11136;48.778;9.126;2024-03-23T03:48:26;5.07;;;2.08;;
21943;SDS011;11136;48.778;9.126;2024-03-23T03:50:52;2.80;;;2.05;;
21943;SDS011;11136;48.778;9.126;2024-03-23T03:53:18;4.95;;;1.88;;
21943;SDS011;11136;48.778;9.126;2024-03-23T03:55:44;2.70;;;1.80;;
21943;SDS011;11136;48.778;9.126;2024-03-23T03:58:09;4.25;;;2.20;;
21943;SDS011;11136;48.778;9.126;2024-03-23T04:00:35;3.85;;;1.90;;
21943;SDS011;11136;48.778;9.126;2024-03-23T04:03:00;7.20;;;2.00;;
21943;SDS011;11136;48.778;9.126;2024-03-23T04:05:26;5.93;;;1.70;;
21943;SDS011;11136;48.778;9.126;2024-03-23T04:07:52;2.35;;;1.80;;
21943;SDS011;11136;48.778;9.126;2024-03-23T04:10:17;3.42;;;1.80;;
21943;SDS011;11136;48.778;9.126;2024-03-23T04:12:43;2.53;;;1.60;;
21943;SDS011;11136;48.778;9.126;2024-03-23T04:15:09;5.05;;;1.58;;
21943;SDS011;11136;48.778;9.126;2024-03-23T04:17:34;5.68;;;1.85;;
21943;SDS011;11136;48.778;9.126;2024-03-23T04:20:00;4.25;;;1.83;;
21943;SDS011;11136;48.778;9.126;2024-03-23T04:22:26;3.67;;;1.83;;
21943;SDS011;11136;48.778;9.126;2024-03-23T04:24:55;3.75;;;1.73;;
21943;SDS011;11136;48.778;9.126;2024-03-23T04:27:22;4.90;;;2.00;;
21943;SDS011;11136;48.778;9.126;2024-03-23T04:29:51;3.17;;;1.90;;
21943;SDS011;11136;48.778;9.126;2024-03-23T04:32:20;3.28;;;1.83;;
21943;SDS011;11136;48.778;9.126;2024-03-23T04:34:45;4.57;;;2.08;;
21943;SDS011;11136;48.778;9.126;2024-03-23T04:37:11;2.42;;;1.77;;
21943;SDS011;11136;48.778;9.126;2024-03-23T04:39:36;2.97;;;2.15;;
21943;SDS011;11136;48.778;9.126;2024-03-23T04:42:02;5.50;;;2.60;;
21943;SDS011;11136;48.778;9.126;2024-03-23T04:44:28;5.35;;;2.53;;
21943;SDS011;11136;48.778;9.126;2024-03-23T04:46:54;6.05;;;2.75;;
21943;SDS011;11136;48.778;9.126;2024-03-23T04:49:19;6.05;;;2.60;;
21943;SDS011;11136;48.778;9.126;2024-03-23T04:51:45;8.27;;;3.03;;
21943;SDS011;11136;48.778;9.126;2024-03-23T04:54:14;6.10;;;3.10;;
21943;SDS011;11136;48.778;9.126;2024-03-23T04:56:40;6.90;;;3.30;;
21943;SDS011;11136;48.778;9.126;2024-03-23T04:59:05;6.63;;;3.90;;
21943;SDS011;11136;48.778;9.126;2024-03-23T05:01:31;7.43;;;4.78;;
21943;SDS011;11136;48.778;9.126;2024-03-23T05:03:57;9.98;;;6.90;;
21943;SDS011;11136;48.778;9.126;2024-03-23T05:06:23;9.15;;;5.75;;
21943;SDS011;11136;48.778;9.126;2024-03-23T05:08:49;13.70;;;7.00;;
21943;SDS011;11136;48.778;9.126;2024-03-23T05:11:16;11.32;;;7.93;;
21943;SDS011;11136;48.778;9.126;2024-03-23T05:13:42;11.77;;;7.43;;
21943;SDS011;11136;48.778;9.126;2024-03-23T05:16:07;12.18;;;8.48;;
21943;SDS011;11136;48.778;9.126;2024-03-23T05:18:39;11.73;;;6.40;;
21943;SDS011;11136;48.778;9.126;2024-03-23T05:21:04;13.27;;;9.38;;
21943;SDS011;11136;48.778;9.126;2024-03-23T05:23:36;13.80;;;8.98;;
21943;SDS011;11136;48.778;9.126;2024-03-23T05:26:03;13.98;;;9.10;;
21943;SDS011;11136;48.778;9.126;2024-03-23T05:28:28;14.07;;;9.68;;
21943;SDS011;11136;48.778;9.126;2024-03-23T05:30:54;16.42;;;9.68;;
21943;SDS011;11136;48.778;9.126;2024-03-23T05:33:20;14.95;;;8.25;;
21943;SDS011;11136;48.778;9.126;2024-03-23T05:35:45;13.93;;;8.95;;
21943;SDS011;11136;48.778;9.126;2024-03-23T05:38:12;16.60;;;9.13;;
21943;SDS011;11136;48.778;9.126;2024-03-23T05:40:38;14.10;;;8.40;;
21943;SDS011;11136;48.778;9.126;2024-03-23T05:43:05;15.63;;;9.27;;
21943;SDS011;11136;48.778;9.126;2024-03-23T05:45:31;11.30;;;7.80;;
21943;SDS011;11136;48.778;9.126;2024-03-23T05:47:57;14.38;;;9.45;;
21943;SDS011;11136;48.778;9.126;2024-03-23T05:50:23;13.68;;;8.95;;
21943;SDS011;11136;48.778;9.126;2024-03-23T05:52:48;15.10;;;9.05;;
21943;SDS011;11136;48.778;9.126;2024-03-23T05:55:14;12.40;;;7.63;;
21943;SDS011;11136;48.778;9.126;2024-03-23T05:57:40;11.93;;;6.93;;
21943;SDS011;11136;48.778;9.126;2024-03-23T06:00:05;7.85;;;5.38;;
21943;SDS011;11136;48.778;9.126;2024-03-23T06:02:35;6.15;;;4.43;;
21943;SDS011;11136;48.778;9.126;2024-03-23T06:05:01;7.40;;;4.90;;
21943;SDS011;11136;48.778;9.126;2024-03-23T06:07:28;7.38;;;4.80;;
21943;SDS011;11136;48.778;9.126;2024-03-23T06:09:53;8.98;;;4.70;;
21943;SDS011;11136;48.778;9.126;2024-03-23T06:12:18;6.25;;;4.80;;
21943;SDS011;11136;48.778;9.126;2024-03-23T06:14:44;7.03;;;3.97;;
21943;SDS011;11136;48.778;9.126;2024-03-23T06:17:09;7.30;;;4.00;;
21943;SDS011;11136;48.778;9.126;2024-03-23T06:19:34;4.25;;;3.17;;
21943;SDS011;11136;48.778;9.126;2024-03-23T06:21:59;5.88;;;3.65;;
21943;SDS011;11136;48.778;9.126;2024-03-23T06:24:25;4.60;;;2.50;;
21943;SDS011;11136;48.778;9.126;2024-03-23T06:26:50;4.15;;;2.47;;
21943;SDS011;11136;48.778;9.126;2024-03-23T06:29:16;2.47;;;2.17;;
21943;SDS011;11136;48.778;9.126;2024-03-23T06:31:41;2.95;;;1.55;;
21943;SDS011;11136;48.778;9.126;2024-03-23T06:34:07;1.50;;;1.23;;
21943;SDS011;11136;48.778;9.126;2024-03-23T06:36:32;1.65;;;1.50;;
21943;SDS011;11136;48.778;9.126;2024-03-23T06:38:57;2.28;;;1.60;;
21943;SDS011;11136;48.778;9.126;2024-03-23T06:41:23;1.35;;;1.15;;
21943;SDS011;11136;48.778;9.126;2024-03-23T06:43:49;2.10;;;1.15;;
21943;SDS011;11136;48.778;9.126;2024-03-23T06:46:14;0.77;;;0.40;;
21943;SDS011;11136;48.778;9.126;2024-03-23T06:48:40;1.08;;;0.70;;
21943;SDS011;11136;48.778;9.126;2024-03-23T06:51:05;1.30;;;0.90;;
21943;SDS011;11136;48.778;9.126;2024-03-23T06:53:31;0.60;;;0.50;;
21943;SDS011;11136;48.778;9.126;2024-03-23T06:55:57;0.38;;;0.38;;
21943;SDS011;11136;48.778;9.126;2024-03-23T06:58:24;0.40;;;0.40;;
21943;SDS011;11136;48.778;9.126;2024-03-23T07:00:50;0.70;;;0.50;;
21943;SDS011;11136;48.778;9.126;2024-03-23T07:03:16;0.57;;;0.50;;
21943;SDS011;11136;48.778;9.126;2024-03-23T07:05:42;0.50;;;0.50;;
21943;SDS011;11136;48.778;9.126;2024-03-23T07:08:07;0.30;;;0.30;;
21943;SDS011;11136;48.778;9.126;2024-03-23T07:10:33;0.30;;;0.30;;
21943;SDS011;11136;48.778;9.126;2024-03-23T07:12:58;0.65;;;0.60;;
21943;SDS011;11136;48.778;9.126;2024-03-23T07:15:24;0.25;;;0.25;;
21943;SDS011;11136;48.778;9.126;2024-03-23T07:17:49;0.70;;;0.38;;
21943;SDS011;11136;48.778;9.126;2024-03-23T07:20:14;2.75;;;0.50;;
21943;SDS011;11136;48.778;9.126;2024-03-23T07:22:40;0.30;;;0.30;;
21943;SDS011;11136;48.778;9.126;2024-03-23T07:25:05;0.60;;;0.50;;
21943;SDS011;11136;48.778;9.126;2024-03-23T07:27:31;0.17;;;0.17;;
21943;SDS011;11136;48.778;9.126;2024-03-23T07:29:57;0.75;;;0.38;;
21943;SDS011;11136;48.778;9.126;2024-03-23T07:32:22;0.30;;;0.30;;
21943;SDS011;11136;48.778;9.126;2024-03-23T07:34:48;0.25;;;0.25;;
21943;SDS011;11136;48.778;9.126;2024-03-23T07:37:13;0.13;;;0.13;;
21943;SDS011;11136;48.778;9.126;2024-03-23T07:39:39;1.35;;;0.40;;
21943;SDS011;11136;48.778;9.126;2024-03-23T07:42:05;0.20;;;0.20;;
21943;SDS011;11136;48.778;9.126;2024-03-23T07:44:30;0.35;;;0.35;;
21943;SDS011;11136;48.778;9.126;2024-03-23T07:46:56;0.40;;;0.40;;
21943;SDS011;11136;48.778;9.126;2024-03-23T07:49:21;0.50;;;0.50;;
21943;SDS011;11136;48.778;9.126;2024-03-23T07:51:47;0.70;;;0.35;;
21943;SDS011;11136;48.778;9.126;2024-03-23T07:54:12;0.60;;;0.40;;
21943;SDS011;11136;48.778;9.126;2024-03-23T07:56:38;0.40;;;0.40;;
21943;SDS011;11136;48.778;9.126;2024-03-23T07:59:03;0.70;;;0.50;;
21943;SDS011;11136;48.778;9.126;2024-03-23T08:01:28;0.38;;;0.38;;
21943;SDS011;11136;48.778;9.126;2024-03-23T08:03:54;1.50;;;0.73;;
21943;SDS011;11136;48.778;9.126;2024-03-23T08:06:20;0.60;;;0.60;;
21943;SDS011;11136;48.778;9.126;2024-03-23T08:08:48;0.60;;;0.50;;
21943;SDS011;11136;48.778;9.126;2024-03-23T08:11:24;0.60;;;0.60;;
21943;SDS011;11136;48.778;9.126;2024-03-23T08:13:51;1.13;;;0.70;;
21943;SDS011;11136;48.778;9.126;2024-03-23T08:16:16;1.10;;;0.70;;
21943;SDS011;11136;48.778;9.126;2024-03-23T08:18:42;0.52;;;0.52;;
21943;SDS011;11136;48.778;9.126;2024-03-23T08:21:07;0.75;;;0.70;;
21943;SDS011;11136;48.778;9.126;2024-03-23T08:23:34;0.82;;;0.52;;
21943;SDS011;11136;48.778;9.126;2024-03-23T08:26:03;0.45;;;0.45;;
21943;SDS011;11136;48.778;9.126;2024-03-23T08:28:31;1.00;;;0.80;;
21943;SDS011;11136;48.778;9.126;2024-03-23T08:31:00;0.63;;;0.63;;
21943;SDS011;11136;48.778;9.126;2024-03-23T08:33:26;0.80;;;0.65;;
21943;SDS011;11136;48.778;9.126;2024-03-23T08:35:55;1.88;;;1.13;;
21943;SDS011;11136;48.778;9.126;2024-03-23T08:38:22;0.88;;;0.77;;
21943;SDS011;11136;48.778;9.126;2024-03-23T08:40:48;0.68;;;0.68;;
21943;SDS011;11136;48.778;9.126;2024-03-23T08:43:14;1.33;;;0.82;;
21943;SDS011;11136;48.778;9.126;2024-03-23T08:45:39;1.23;;;0.73;;
21943;SDS011;11136;48.778;9.126;2024-03-23T08:48:05;4.00;;;1.00;;
21943;SDS011;11136;48.778;9.126;2024-03-23T08:50:30;2.30;;;1.20;;
21943;SDS011;11136;48.778;9.126;2024-03-23T08:52:56;2.17;;;1.35;;
21943;SDS011;11136;48.778;9.126;2024-03-23T08:55:21;1.13;;;1.00;;
21943;SDS011;11136;48.778;9.126;2024-03-23T08:57:46;2.30;;;1.30;;
21943;SDS011;11136;48.778;9.126;2024-03-23T09:00:12;1.17;;;0.93;;
21943;SDS011;11136;48.778;9.126;2024-03-23T09:02:38;1.98;;;1.05;;
21943;SDS011;11136;48.778;9.126;2024-03-23T09:05:03;3.13;;;1.15;;
21943;SDS011;11136;48.778;9.126;2024-03-23T09:07:32;2.17;;;1.15;;
21943;SDS011;11136;48.778;9.126;2024-03-23T09:09:57;1.75;;;1.00;;
21943;SDS011;11136;48.778;9.126;2024-03-23T09:12:23;1.88;;;1.40;;
21943;SDS011;11136;48.778;9.126;2024-03-23T09:14:49;1.83;;;1.38;;
21943;SDS011;11136;48.778;9.126;2024-03-23T09:17:16;3.95;;;1.60;;
21943;SDS011;11136;48.778;9.126;2024-03-23T09:19:43;3.75;;;1.80;;
21943;SDS011;11136;48.778;9.126;2024-03-23T09:22:08;2.67;;;1.63;;
21943;SDS011;11136;48.778;9.126;2024-03-23T09:24:33;4.53;;;1.70;;
21943;SDS011;11136;48.778;9.126;2024-03-23T09:26:59;6.20;;;1.88;;
21943;SDS011;11136;48.778;9.126;2024-03-23T09:29:24;5.57;;;2.30;;
21943;SDS011;11136;48.778;9.126;2024-03-23T09:31:50;1.33;;;1.02;;
21943;SDS011;11136;48.778;9.126;2024-03-23T09:34:15;7.35;;;2.30;;
21943;SDS011;11136;48.778;9.126;2024-03-23T09:36:40;5.45;;;2.03;;
21943;SDS011;11136;48.778;9.126;2024-03-23T09:39:06;5.95;;;2.70;;
21943;SDS011;11136;48.778;9.126;2024-03-23T09:41:34;4.53;;;2.50;;
21943;SDS011;11136;48.778;9.126;2024-03-23T09:44:01;5.07;;;2.35;;
21943;SDS011;11136;48.778;9.126;2024-03-23T09:46:27;11.85;;;2.72;;
21943;SDS011;11136;48.778;9.126;2024-03-23T09:48:53;10.75;;;2.45;;
21943;SDS011;11136;48.778;9.126;2024-03-23T09:51:21;5.85;;;2.17;;
21943;SDS011;11136;48.778;9.126;2024-03-23T09:53:48;9.43;;;2.20;;
21943;SDS011;11136;48.778;9.126;2024-03-23T09:56:15;5.10;;;2.58;;
21943;SDS011;11136;48.778;9.126;2024-03-23T09:58:42;8.20;;;3.08;;
21943;SDS011;11136;48.778;9.126;2024-03-23T10:01:07;2.88;;;1.80;;
21943;SDS011;11136;48.778;9.126;2024-03-23T10:03:41;5.65;;;2.65;;
21943;SDS011;11136;48.778;9.126;2024-03-23T10:06:11;5.82;;;2.80;;
21943;SDS011;11136;48.778;9.126;2024-03-23T10:08:36;5.20;;;2.75;;
21943;SDS011;11136;48.778;9.126;2024-03-23T10:11:14;7.25;;;2.80;;
21943;SDS011;11136;48.778;9.126;2024-03-23T10:13:41;8.20;;;3.28;;
21943;SDS011;11136;48.778;9.126;2024-03-23T10:16:09;4.78;;;1.83;;
21943;SDS011;11136;48.778;9.126;2024-03-23T10:18:38;7.65;;;2.20;;
21943;SDS011;11136;48.778;9.126;2024-03-23T10:21:10;5.80;;;2.55;;
21943;SDS011;11136;48.778;9.126;2024-03-23T10:23:39;7.32;;;2.50;;
21943;SDS011;11136;48.778;9.126;2024-03-23T10:28:43;7.93;;;3.10;;
21943;SDS011;11136;48.778;9.126;2024-03-23T10:33:45;5.03;;;2.53;;
21943;SDS011;11136;48.778;9.126;2024-03-23T10:36:14;7.13;;;2.22;;
21943;SDS011;11136;48.778;9.126;2024-03-23T10:38:40;9.30;;;3.38;;
21943;SDS011;11136;48.778;9.126;2024-03-23T10:41:08;6.82;;;2.40;;
21943;SDS011;11136;48.778;9.126;2024-03-23T10:43:35;7.47;;;2.50;;
21943;SDS011;11136;48.778;9.126;2024-03-23T10:46:01;6.43;;;2.13;;
21943;SDS011;11136;48.778;9.126;2024-03-23T10:48:26;9.95;;;2.63;;
21943;SDS011;11136;48.778;9.126;2024-03-23T10:50:52;5.68;;;2.58;;
21943;SDS011;11136;48.778;9.126;2024-03-23T10:53:18;8.15;;;2.65;;
21943;SDS011;11136;48.778;9.126;2024-03-23T10:55:44;4.05;;;2.22;;
21943;SDS011;11136;48.778;9.126;2024-03-23T10:58:09;8.77;;;2.65;;
21943;SDS011;11136;48.778;9.126;2024-03-23T11:00:37;8.18;;;2.13;;
21943;SDS011;11136;48.778;9.126;2024-03-23T11:05:58;4.07;;;1.80;;
21943;SDS011;11136;48.778;9.126;2024-03-23T11:08:34;4.47;;;2.17;;
21943;SDS011;11136;48.778;9.126;2024-03-23T11:13:50;3.63;;;2.08;;
21943;SDS011;11136;48.778;9.126;2024-03-23T11:16:17;2.45;;;1.58;;
21943;SDS011;11136;48.778;9.126;2024-03-23T11:18:49;3.53;;;2.25;;
21943;SDS011;11136;48.778;9.126;2024-03-23T11:24:19;3.63;;;2.03;;
21943;SDS011;11136;48.778;9.126;2024-03-23T11:26:46;5.35;;;2.05;;
21943;SDS011;11136;48.778;9.126;2024-03-23T11:29:12;3.72;;;2.15;;
21943;SDS011;11136;48.778;9.126;2024-03-23T11:31:38;4.53;;;2.15;;
21943;SDS011;11136;48.778;9.126;2024-03-23T11:34:10;6.93;;;1.88;;
21943;SDS011;11136;48.778;9.126;2024-03-23T11:36:35;4.72;;;2.00;;
21943;SDS011;11136;48.778;9.126;2024-03-23T11:39:11;5.47;;;1.73;;
21943;SDS011;11136;48.778;9.126;2024-03-23T11:41:55;2.00;;;1.30;;
21943;SDS011;11136;48.778;9.126;2024-03-23T11:44:22;4.15;;;1.98;;
21943;SDS011;11136;48.778;9.126;2024-03-23T11:46:50;3.15;;;1.90;;
21943;SDS011;11136;48.778;9.126;2024-03-23T11:49:19;3.55;;;1.90;;
21943;SDS011;11136;48.778;9.126;2024-03-23T11:51:49;8.63;;;1.55;;
21943;SDS011;11136;48.778;9.126;2024-03-23T11:54:15;3.85;;;1.58;;
21943;SDS011;11136;48.778;9.126;2024-03-23T11:56:41;4.18;;;1.25;;
21943;SDS011;11136;48.778;9.126;2024-03-23T11:59:38;2.58;;;1.48;;
21943;SDS011;11136;48.778;9.126;2024-03-23T12:02:09;1.45;;;0.90;;
21943;SDS011;11136;48.778;9.126;2024-03-23T12:04:36;4.75;;;1.08;;
21943;SDS011;11136;48.778;9.126;2024-03-23T12:07:08;3.08;;;1.58;;
21943;SDS011;11136;48.778;9.126;2024-03-23T12:09:35;3.42;;;1.30;;
21943;SDS011;11136;48.778;9.126;2024-03-23T12:12:08;3.33;;;1.10;;
21943;SDS011;11136;48.778;9.126;2024-03-23T12:14:35;4.15;;;1.40;;
21943;SDS011;11136;48.778;9.126;2024-03-23T12:17:08;7.28;;;1.70;;
21943;SDS011;11136;48.778;9.126;2024-03-23T12:19:34;4.32;;;1.38;;
21943;SDS011;11136;48.778;9.126;2024-03-23T12:21:59;11.10;;;1.77;;
21943;SDS011;11136;48.778;9.126;2024-03-23T12:24:26;7.15;;;1.60;;
21943;SDS011;11136;48.778;9.126;2024-03-23T12:26:51;4.40;;;2.05;;
21943;SDS011;11136;48.778;9.126;2024-03-23T12:29:17;8.10;;;1.45;;
21943;SDS011;11136;48.778;9.126;2024-03-23T12:31:43;4.25;;;1.67;;
21943;SDS011;11136;48.778;9.126;2024-03-23T12:34:09;3.65;;;1.45;;
21943;SDS011;11136;48.778;9.126;2024-03-23T12:36:34;5.95;;;1.98;;
21943;SDS011;11136;48.778;9.126;2024-03-23T12:38:59;4.70;;;1.20;;
21943;SDS011;11136;48.778;9.126;2024-03-23T12:41:25;7.68;;;1.98;;
21943;SDS011;11136;48.778;9.126;2024-03-23T12:43:50;8.30;;;2.60;;
21943;SDS011;11136;48.778;9.126;2024-03-23T12:46:16;7.35;;;2.08;;
21943;SDS011;11136;48.778;9.126;2024-03-23T12:48:41;8.88;;;1.48;;
21943;SDS011;11136;48.778;9.126;2024-03-23T12:51:09;6.30;;;2.08;;
21943;SDS011;11136;48.778;9.126;2024-03-23T12:53:35;7.13;;;2.17;;
21943;SDS011;11136;48.778;9.126;2024-03-23T12:56:00;10.80;;;1.98;;
21943;SDS011;11136;48.778;9.126;2024-03-23T12:58:25;10.32;;;2.45;;
21943;SDS011;11136;48.778;9.126;2024-03-23T13:00:50;8.27;;;1.95;;
21943;SDS011;11136;48.778;9.126;2024-03-23T13:03:16;7.45;;;2.22;;
21943;SDS011;11136;48.778;9.126;2024-03-23T13:05:41;8.18;;;2.28;;
21943;SDS011;11136;48.778;9.126;2024-03-23T13:08:06;5.30;;;1.98;;
21943;SDS011;11136;48.778;9.126;2024-03-23T13:10:32;4.20;;;2.00;;
21943;SDS011;11136;48.778;9.126;2024-03-23T13:12:58;9.02;;;1.92;;
21943;SDS011;11136;48.778;9.126;2024-03-23T13:15:23;9.07;;;2.50;;
21943;SDS011;11136;48.778;9.126;2024-03-23T13:17:48;3.55;;;1.77;;
21943;SDS011;11136;48.778;9.126;2024-03-23T13:20:13;6.40;;;2.30;;
21943;SDS011;11136;48.778;9.126;2024-03-23T13:22:40;6.85;;;1.85;;
21943;SDS011;11136;48.778;9.126;2024-03-23T13:25:05;5.07;;;1.60;;
21943;SDS011;11136;48.778;9.126;2024-03-23T13:27:31;6.93;;;1.80;;
21943;SDS011;11136;48.778;9.126;2024-03-23T13:29:56;3.83;;;1.48;;
21943;SDS011;11136;48.778;9.126;2024-03-23T13:32:22;4.70;;;1.55;;
21943;SDS011;11136;48.778;9.126;2024-03-23T13:34:48;3.42;;;1.05;;
21943;SDS011;11136;48.778;9.126;2024-03-23T13:37:15;5.82;;;1.92;;
21943;SDS011;11136;48.778;9.126;2024-03-23T13:39:41;1.80;;;0.82;;
21943;SDS011;11136;48.778;9.126;2024-03-23T13:42:07;5.32;;;1.60;;
21943;SDS011;11136;48.778;9.126;2024-03-23T13:44:34;3.97;;;1.08;;
21943;SDS011;11136;48.778;9.126;2024-03-23T13:46:59;3.67;;;1.50;;
21943;SDS011;11136;48.778;9.126;2024-03-23T13:49:28;3.10;;;0.95;;
21943;SDS011;11136;48.778;9.126;2024-03-23T13:51:57;3.53;;;1.73;;
21943;SDS011;11136;48.778;9.126;2024-03-23T13:54:23;4.32;;;0.98;;
21943;SDS011;11136;48.778;9.126;2024-03-23T13:56:50;2.08;;;0.98;;
21943;SDS011;11136;48.778;9.126;2024-03-23T13:59:15;3.22;;;1.55;;
21943;SDS011;11136;48.778;9.126;2024-03-23T14:01:42;2.35;;;1.30;;
21943;SDS011;11136;48.778;9.126;2024-03-23T14:04:07;5.78;;;1.95;;
21943;SDS011;11136;48.778;9.126;2024-03-23T14:06:32;4.88;;;1.38;;
21943;SDS011;11136;48.778;9.126;2024-03-23T14:08:58;7.03;;;1.70;;
21943;SDS011;11136;48.778;9.126;2024-03-23T14:11:23;6.45;;;1.60;;
21943;SDS011;11136;48.778;9.126;2024-03-23T14:13:50;5.47;;;1.25;;
21943;SDS011;11136;48.778;9.126;2024-03-23T14:16:16;4.30;;;1.73;;
21943;SDS011;11136;48.778;9.126;2024-03-23T14:18:41;3.25;;;0.80;;
21943;SDS011;11136;48.778;9.126;2024-03-23T14:21:07;2.28;;;1.20;;
21943;SDS011;11136;48.778;9.126;2024-03-23T14:23:32;1.92;;;1.00;;
21943;SDS011;11136;48.778;9.126;2024-03-23T14:26:00;0.77;;;0.70;;
21943;SDS011;11136;48.778;9.126;2024-03-23T14:28:26;3.03;;;1.88;;
21943;SDS011;11136;48.778;9.126;2024-03-23T14:30:51;0.98;;;0.70;;
21943;SDS011;11136;48.778;9.126;2024-03-23T14:33:20;4.03;;;1.00;;
21943;SDS011;11136;48.778;9.126;2024-03-23T14:35:52;1.20;;;0.80;;
21943;SDS011;11136;48.778;9.126;2024-03-23T14:38:24;4.30;;;0.98;;
21943;SDS011;11136;48.778;9.126;2024-03-23T14:40:49;0.98;;;0.80;;
21943;SDS011;11136;48.778;9.126;2024-03-23T14:43:14;2.88;;;0.95;;
21943;SDS011;11136;48.778;9.126;2024-03-23T14:48:30;1.73;;;0.73;;
21943;SDS011;11136;48.778;9.126;2024-03-23T14:50:56;2.17;;;0.90;;
21943;SDS011;11136;48.778;9.126;2024-03-23T14:53:22;1.45;;;0.70;;
21943;SDS011;11136;48.778;9.126;2024-03-23T14:55:47;2.95;;;1.10;;
21943;SDS011;11136;48.778;9.126;2024-03-23T14:58:14;1.88;;;0.88;;
21943;SDS011;11136;48.778;9.126;2024-03-23T15:00:39;5.43;;;1.15;;
21943;SDS011;11136;48.778;9.126;2024-03-23T15:03:06;4.45;;;1.13;;
21943;SDS011;11136;48.778;9.126;2024-03-23T15:05:31;7.20;;;1.40;;
21943;SDS011;11136;48.778;9.126;2024-03-23T15:07:56;4.20;;;1.13;;
21943;SDS011;11136;48.778;9.126;2024-03-23T15:10:23;2.80;;;1.40;;
21943;SDS011;11136;48.778;9.126;2024-03-23T15:12:48;2.05;;;1.20;;
21943;SDS011;11136;48.778;9.126;2024-03-23T15:15:15;3.08;;;1.55;;
21943;SDS011;11136;48.778;9.126;2024-03-23T15:17:40;2.17;;;0.90;;
21943;SDS011;11136;48.778;9.126;2024-03-23T15:20:10;1.70;;;1.05;;
21943;SDS011;11136;48.778;9.126;2024-03-23T15:22:39;2.95;;;1.02;;
21943;SDS011;11136;48.778;9.126;2024-03-23T15:25:04;2.35;;;0.70;;
21943;SDS011;11136;48.778;9.126;2024-03-23T15:27:30;2.83;;;0.60;;
21943;SDS011;11136;48.778;9.126;2024-03-23T15:29:58;6.90;;;1.08;;
21943;SDS011;11136;48.778;9.126;2024-03-23T15:32:23;2.67;;;1.02;;
21943;SDS011;11136;48.778;9.126;2024-03-23T15:34:49;0.82;;;0.50;;
21943;SDS011;11136;48.778;9.126;2024-03-23T15:37:14;1.65;;;0.95;;
21943;SDS011;11136;48.778;9.126;2024-03-23T15:39:40;1.90;;;0.80;;
21943;SDS011;11136;48.778;9.126;2024-03-23T15:42:06;6.13;;;0.88;;
21943;SDS011;11136;48.778;9.126;2024-03-23T15:44:32;1.75;;;0.90;;
21943;SDS011;11136;48.778;9.126;2024-03-23T15:46:58;2.60;;;1.30;;
21943;SDS011;11136;48.778;9.126;2024-03-23T15:49:23;0.82;;;0.70;;